Time;durP1;ratioP1;P1;durP2;ratioP2;P2;SDS_P1;SDS_P2;PMS_P1;PMS_P2;Temp;Humidity;BMP_temperature;BMP_pressure;BME280_temperature;BME280_humidity;BME280_pressure;Samples;Min_cycle;Max_cycle;Signal;HPM_P1;HPM_P2
2023/06/20 00:00:09;;;;;;;0.90;0.90;;;17.10;99.90;;;;;;5051819;28;20209;-81
2023/06/20 00:02:36;;;;;;;0.70;0.70;;;17.10;99.90;;;;;;5033890;28;20198;-82
2023/06/20 00:05:03;;;;;;;1.45;0.70;;;17.20;99.90;;;;;;5051841;28;20189;-81
2023/06/20 00:07:29;;;;;;;0.75;0.75;;;17.20;99.90;;;;;;5050767;28;20300;-81
2023/06/20 00:09:55;;;;;;;0.90;0.90;;;17.20;99.90;;;;;;5051279;28;20703;-81
2023/06/20 00:12:21;;;;;;;0.40;0.40;;;17.20;99.90;;;;;;5032380;28;20247;-80
2023/06/20 00:14:46;;;;;;;0.93;0.80;;;17.20;99.90;;;;;;5033530;28;20717;-81
2023/06/20 00:17:13;;;;;;;0.90;0.75;;;17.20;99.90;;;;;;5051237;28;20201;-79
2023/06/20 00:19:40;;;;;;;0.60;0.60;;;17.10;99.90;;;;;;5034620;28;20605;-81
2023/06/20 00:22:06;;;;;;;1.45;1.30;;;17.10;99.90;;;;;;5071086;28;20192;-81
2023/06/20 00:24:32;;;;;;;0.73;0.73;;;17.00;99.90;;;;;;5053024;28;20282;-83
2023/06/20 00:27:02;;;;;;;0.60;0.60;;;17.00;99.90;;;;;;5053220;28;20193;-79
2023/06/20 00:29:28;;;;;;;0.95;0.63;;;17.00;99.90;;;;;;5070725;28;20197;-80
2023/06/20 00:34:21;;;;;;;0.50;0.50;;;17.00;99.90;;;;;;5034161;28;20226;-71
2023/06/20 00:36:47;;;;;;;1.58;0.80;;;17.00;99.90;;;;;;5053289;28;20255;-71
2023/06/20 00:39:16;;;;;;;0.70;0.70;;;16.90;99.90;;;;;;5055131;28;20205;-70
2023/06/20 00:41:42;;;;;;;1.65;0.70;;;16.80;99.90;;;;;;5054286;28;20264;-70
2023/06/20 00:44:07;;;;;;;0.73;0.70;;;16.80;99.90;;;;;;5051058;28;20213;-70
2023/06/20 00:46:38;;;;;;;0.93;0.85;;;16.90;99.90;;;;;;5050195;28;20185;-70
2023/06/20 00:49:06;;;;;;;0.47;0.47;;;16.90;99.90;;;;;;5050768;28;20719;-70
2023/06/20 00:51:33;;;;;;;0.38;0.35;;;16.80;99.90;;;;;;5050225;28;20272;-69
2023/06/20 00:53:59;;;;;;;0.73;0.73;;;16.90;99.90;;;;;;5062122;28;20189;-69
2023/06/20 00:56:26;;;;;;;2.05;0.82;;;16.80;99.90;;;;;;5070091;28;20801;-69
2023/06/20 00:58:52;;;;;;;2.05;0.85;;;16.90;99.90;;;;;;5069062;28;20209;-69
2023/06/20 01:01:18;;;;;;;0.50;0.50;;;16.80;99.90;;;;;;5049566;28;20197;-70
2023/06/20 01:03:56;;;;;;;0.80;0.80;;;16.90;99.90;;;;;;5017131;23;20252;-70
2023/06/20 01:06:35;;;;;;;3.78;1.38;;;16.90;99.90;;;;;;4952706;28;20221;-63
2023/06/20 01:09:52;;;;;;;1.85;0.57;;;16.90;99.90;;;;;;4972165;28;20285;-64
2023/06/20 01:12:50;;;;;;;0.65;0.65;;;16.80;99.90;;;;;;4977910;28;20205;-64
2023/06/20 01:15:41;;;;;;;1.77;1.42;;;16.80;99.90;;;;;;4969677;28;20204;-64
2023/06/20 01:18:44;;;;;;;0.55;0.55;;;16.80;99.90;;;;;;4977271;28;20201;-72
2023/06/20 01:24:46;;;;;;;;;;;;;;;;;;;;;
2023/06/20 01:27:24;;;;;;;0.65;0.65;;;16.80;99.90;;;;;;4979075;28;20291;-71
2023/06/20 01:33:58;;;;;;;0.40;0.40;;;16.80;99.90;;;;;;4859708;29;20223;-72
2023/06/20 01:37:02;;;;;;;0.70;0.70;;;16.80;99.90;;;;;;4903849;29;20217;-65
2023/06/20 01:40:09;;;;;;;0.65;0.65;;;16.80;99.90;;;;;;4958063;29;20221;-63
2023/06/20 01:42:46;;;;;;;14.65;1.15;;;16.80;99.90;;;;;;4960670;29;20193;-69
2023/06/20 01:45:19;;;;;;;0.47;0.45;;;16.80;99.90;;;;;;4961339;29;20274;-69
2023/06/20 01:48:00;;;;;;;3.08;1.00;;;16.70;99.90;;;;;;4959772;29;20317;-69
2023/06/20 01:50:37;;;;;;;0.47;0.47;;;16.70;99.90;;;;;;4976812;28;20204;-69
2023/06/20 01:53:43;;;;;;;0.63;0.63;;;16.70;99.90;;;;;;4979710;28;20208;-68
2023/06/20 01:56:16;;;;;;;1.05;1.05;;;16.70;99.90;;;;;;4978510;28;20200;-64
2023/06/20 01:58:56;;;;;;;1.05;0.95;;;16.80;99.90;;;;;;4959710;28;20212;-64
2023/06/20 02:02:11;;;;;;;1.00;0.73;;;16.80;99.90;;;;;;4978707;28;20208;-65
2023/06/20 02:04:58;;;;;;;0.85;0.85;;;16.80;99.90;;;;;;4976911;28;20259;-64
2023/06/20 02:07:40;;;;;;;1.08;0.85;;;16.80;99.90;;;;;;4976106;28;20200;-65
2023/06/20 02:10:37;;;;;;;0.88;0.68;;;16.80;99.90;;;;;;4960629;28;20196;-65
2023/06/20 02:13:13;;;;;;;0.77;0.77;;;16.70;99.90;;;;;;4977650;28;20204;-65
2023/06/20 02:15:40;;;;;;;0.40;0.40;;;16.70;99.90;;;;;;4960654;28;20515;-65
2023/06/20 02:18:15;;;;;;;0.57;0.57;;;16.80;99.90;;;;;;4961265;28;20293;-65
2023/06/20 02:20:52;;;;;;;1.02;1.00;;;16.80;99.90;;;;;;4977952;28;20235;-63
2023/06/20 02:23:35;;;;;;;0.75;0.75;;;16.90;99.90;;;;;;4978044;28;20279;-65
2023/06/20 02:26:28;;;;;;;0.85;0.80;;;16.90;99.90;;;;;;4963076;28;20215;-64
2023/06/20 02:29:07;;;;;;;2.00;0.95;;;16.90;99.90;;;;;;4957668;28;20212;-64
2023/06/20 02:32:15;;;;;;;0.65;0.65;;;16.90;99.90;;;;;;4977921;28;20671;-64
2023/06/20 02:34:56;;;;;;;0.85;0.85;;;17.00;99.90;;;;;;4926869;28;20212;-67
2023/06/20 02:37:57;;;;;;;;;;;;;;;;;;;;;
2023/06/20 02:40:36;;;;;;;0.77;0.77;;;16.80;99.90;;;;;;4976621;28;20219;-63
2023/06/20 02:43:09;;;;;;;1.60;0.98;;;16.60;99.90;;;;;;4977343;28;20192;-63
2023/06/20 02:46:12;;;;;;;0.70;0.70;;;16.50;99.90;;;;;;4961860;28;20570;-68
2023/06/20 02:52:33;;;;;;;0.32;0.32;;;16.50;99.90;;;;;;4957692;28;20268;-68
2023/06/20 02:55:28;;;;;;;1.45;0.98;;;16.60;99.90;;;;;;4977262;28;20204;-68
2023/06/20 02:58:11;;;;;;;0.75;0.65;;;16.80;99.90;;;;;;4976302;28;20212;-68
2023/06/20 03:03:58;;;;;;;;;;;;;;;;;;;;;
2023/06/20 03:09:50;;;;;;;0.93;0.85;;;16.80;99.90;;;;;;4985364;28;20207;-68
2023/06/20 03:12:32;;;;;;;1.52;1.00;;;16.90;99.90;;;;;;4999127;28;20291;-70
2023/06/20 03:15:01;;;;;;;6.10;1.35;;;17.00;99.90;;;;;;4978949;28;20334;-64
2023/06/20 03:17:35;;;;;;;1.33;1.02;;;17.20;99.90;;;;;;4980288;28;20799;-64
2023/06/20 03:20:43;;;;;;;;;;;;;;;;;;;;;
2023/06/20 03:23:12;;;;;;;0.65;0.65;;;17.40;99.90;;;;;;4996676;28;20282;-69
2023/06/20 03:25:49;;;;;;;1.27;0.95;;;17.40;99.90;;;;;;4997998;28;20775;-71
2023/06/20 03:28:25;;;;;;;1.08;1.00;;;17.50;99.90;;;;;;4995873;28;20195;-70
2023/06/20 03:30:51;;;;;;;0.40;0.40;;;17.60;99.90;;;;;;4997875;28;20195;-70
2023/06/20 03:33:39;;;;;;;0.52;0.52;;;17.70;99.90;;;;;;4979145;28;20658;-71
2023/06/20 03:36:17;;;;;;;1.58;1.30;;;17.70;99.90;;;;;;4992707;28;20247;-71
2023/06/20 03:38:53;;;;;;;1.85;1.25;;;17.70;99.90;;;;;;4959981;28;20573;-68
2023/06/20 03:41:25;;;;;;;1.40;1.33;;;17.60;99.90;;;;;;4981667;28;20215;-70
2023/06/20 03:44:00;;;;;;;1.80;1.38;;;17.50;99.90;;;;;;4997492;28;20199;-69
2023/06/20 03:46:30;;;;;;;0.60;0.60;;;17.40;99.90;;;;;;4979383;28;20210;-70
2023/06/20 03:49:19;;;;;;;1.55;1.35;;;17.50;99.90;;;;;;4995960;28;20203;-71
2023/06/20 03:52:03;;;;;;;0.80;0.80;;;17.60;99.90;;;;;;4994569;28;20211;-66
2023/06/20 03:54:45;;;;;;;1.13;1.05;;;17.80;99.90;;;;;;4998829;28;20206;-64
2023/06/20 03:57:31;;;;;;;1.05;0.88;;;17.80;99.90;;;;;;4997283;28;20643;-71
2023/06/20 04:00:11;;;;;;;0.77;0.73;;;18.00;99.90;;;;;;4978652;28;20214;-71
2023/06/20 04:10:12;;;;;;;0.80;0.80;;;17.90;99.90;;;;;;4969911;28;20231;-71
2023/06/20 04:15:05;;;;;;;1.00;1.00;;;18.10;99.90;;;;;;5009613;28;20577;-64
2023/06/20 04:17:31;;;;;;;0.82;0.80;;;18.30;99.90;;;;;;4993236;28;20199;-73
2023/06/20 04:19:59;;;;;;;1.00;0.93;;;18.30;99.90;;;;;;5010739;28;20217;-73
2023/06/20 04:22:26;;;;;;;1.20;1.10;;;18.40;99.90;;;;;;5011083;28;20202;-74
2023/06/20 04:24:53;;;;;;;0.55;0.55;;;18.50;99.90;;;;;;5011510;28;20197;-72
2023/06/20 04:27:19;;;;;;;0.95;0.95;;;18.60;99.90;;;;;;5011972;28;20183;-73
2023/06/20 04:29:44;;;;;;;1.30;1.20;;;18.60;99.90;;;;;;4994675;28;20290;-71
2023/06/20 04:32:10;;;;;;;1.33;1.08;;;18.60;99.90;;;;;;5012558;28;20211;-72
2023/06/20 04:34:36;;;;;;;2.88;1.85;;;18.70;99.90;;;;;;5010912;28;20229;-72
2023/06/20 04:44:40;;;;;;;2.83;1.65;;;19.30;99.90;;;;;;5486075;23;20246;-67
2023/06/20 04:49:41;;;;;;;0.60;0.60;;;19.50;99.90;;;;;;5115976;23;20234;-68
2023/06/20 04:52:07;;;;;;;0.80;0.80;;;19.70;99.90;;;;;;4994188;28;20199;-69
2023/06/20 04:54:33;;;;;;;1.23;1.08;;;19.70;99.90;;;;;;4994109;28;20561;-68
2023/06/20 04:56:58;;;;;;;2.28;1.60;;;19.40;99.90;;;;;;4994585;28;20203;-68
2023/06/20 04:59:24;;;;;;;1.98;1.55;;;19.50;99.90;;;;;;4994000;28;20219;-68
2023/06/20 05:01:51;;;;;;;0.50;0.50;;;19.40;99.90;;;;;;4994314;28;20250;-68
2023/06/20 05:04:19;;;;;;;1.38;1.08;;;19.20;99.90;;;;;;4994289;28;20692;-68
2023/06/20 05:06:48;;;;;;;2.00;1.20;;;19.10;99.90;;;;;;4976226;28;20195;-68
2023/06/20 05:09:14;;;;;;;1.48;1.38;;;19.30;99.90;;;;;;4974414;28;20207;-68
2023/06/20 05:11:40;;;;;;;0.70;0.70;;;19.50;99.90;;;;;;4974253;28;20710;-67
2023/06/20 05:14:06;;;;;;;2.40;1.55;;;19.40;99.90;;;;;;4974515;28;20204;-67
2023/06/20 05:16:31;;;;;;;1.35;1.25;;;19.20;99.90;;;;;;4990199;28;20207;-67
2023/06/20 05:18:57;;;;;;;2.22;1.60;;;19.10;99.90;;;;;;4994130;28;20728;-67
2023/06/20 05:21:23;;;;;;;1.30;1.15;;;19.20;99.90;;;;;;4993726;28;20192;-67
2023/06/20 05:23:48;;;;;;;1.85;1.42;;;19.20;99.90;;;;;;4994031;28;20279;-67
2023/06/20 05:26:14;;;;;;;2.47;1.40;;;19.30;99.90;;;;;;4993801;28;20209;-68
2023/06/20 05:28:40;;;;;;;1.83;1.05;;;19.50;99.90;;;;;;4993831;28;20196;-68
2023/06/20 05:31:06;;;;;;;0.93;0.88;;;19.50;99.90;;;;;;4993817;28;20732;-67
2023/06/20 05:33:31;;;;;;;1.00;0.98;;;19.60;99.90;;;;;;4993477;28;20250;-67
2023/06/20 05:35:57;;;;;;;1.45;1.35;;;19.90;99.90;;;;;;4993977;28;20195;-67
2023/06/20 05:38:23;;;;;;;1.08;1.05;;;20.10;99.90;;;;;;4992910;28;20258;-68
2023/06/20 05:40:49;;;;;;;1.58;1.48;;;20.10;99.90;;;;;;4993457;28;20658;-68
2023/06/20 05:43:14;;;;;;;1.40;1.08;;;19.70;99.90;;;;;;4993500;28;20574;-67
2023/06/20 05:45:40;;;;;;;1.55;1.38;;;19.60;99.90;;;;;;4993294;28;20207;-67
2023/06/20 05:48:08;;;;;;;1.52;1.33;;;19.50;99.90;;;;;;4993103;28;20235;-68
2023/06/20 05:50:35;;;;;;;1.23;1.00;;;19.40;99.90;;;;;;4992957;28;20678;-67
2023/06/20 05:53:01;;;;;;;1.40;0.85;;;19.30;99.90;;;;;;4979345;28;20227;-67
2023/06/20 05:55:26;;;;;;;0.80;0.80;;;19.50;99.90;;;;;;4992293;28;20234;-68
2023/06/20 05:57:55;;;;;;;1.02;0.93;;;19.80;99.90;;;;;;4993309;28;20199;-67
2023/06/20 06:00:21;;;;;;;0.80;0.80;;;20.20;99.90;;;;;;4992914;28;20736;-68
2023/06/20 06:02:50;;;;;;;1.15;1.05;;;20.50;99.90;;;;;;4993222;28;20194;-68
2023/06/20 06:05:16;;;;;;;2.10;1.48;;;20.80;99.90;;;;;;4992968;28;20203;-68
2023/06/20 06:07:41;;;;;;;2.90;1.48;;;20.80;99.90;;;;;;4992195;28;20508;-69
2023/06/20 06:10:08;;;;;;;1.33;1.23;;;21.00;99.90;;;;;;4974984;28;20214;-68
2023/06/20 06:12:35;;;;;;;1.85;1.38;;;21.00;99.90;;;;;;4992464;28;20192;-68
2023/06/20 06:15:03;;;;;;;1.17;1.08;;;20.80;99.90;;;;;;4992947;28;20574;-68
2023/06/20 06:17:30;;;;;;;1.92;1.33;;;21.00;99.90;;;;;;5008876;28;20217;-68
2023/06/20 06:19:57;;;;;;;0.88;0.88;;;21.30;99.90;;;;;;4995034;28;20214;-68
2023/06/20 06:22:23;;;;;;;1.60;1.50;;;21.40;99.90;;;;;;5012417;28;20206;-68
2023/06/20 06:24:49;;;;;;;1.90;1.63;;;21.40;99.90;;;;;;5012365;28;20187;-69
2023/06/20 06:27:17;;;;;;;1.65;1.20;;;21.50;99.90;;;;;;4994248;28;20198;-68
2023/06/20 06:29:43;;;;;;;1.35;1.08;;;21.80;99.90;;;;;;5012164;28;20561;-69
2023/06/20 06:32:10;;;;;;;1.25;1.08;;;22.00;99.90;;;;;;4999457;28;20203;-69
2023/06/20 06:34:36;;;;;;;2.45;1.45;;;22.30;99.90;;;;;;4990813;28;20199;-69
2023/06/20 06:37:03;;;;;;;2.35;1.40;;;22.30;99.90;;;;;;4990951;28;20261;-69
2023/06/20 06:39:29;;;;;;;1.27;1.17;;;22.20;99.90;;;;;;4992365;28;20214;-69
2023/06/20 06:41:55;;;;;;;1.77;1.35;;;22.10;99.90;;;;;;4992529;28;20203;-69
2023/06/20 06:44:21;;;;;;;3.00;1.35;;;22.00;99.90;;;;;;4992377;28;20203;-70
2023/06/20 06:46:46;;;;;;;2.22;1.30;;;21.90;99.90;;;;;;4992344;28;20199;-69
2023/06/20 06:49:12;;;;;;;1.55;1.45;;;21.70;99.90;;;;;;4991790;28;20705;-69
2023/06/20 06:51:41;;;;;;;1.88;1.48;;;21.80;99.90;;;;;;4992124;28;20204;-69
2023/06/20 06:54:07;;;;;;;2.42;1.92;;;22.00;99.90;;;;;;4973827;28;20719;-69
2023/06/20 06:56:33;;;;;;;2.25;1.40;;;22.10;99.90;;;;;;4991774;28;20195;-69
2023/06/20 06:59:00;;;;;;;1.10;0.90;;;22.20;99.90;;;;;;4974623;28;20357;-68
2023/06/20 07:01:28;;;;;;;1.25;1.15;;;22.40;99.90;;;;;;4974465;28;20195;-69
2023/06/20 07:03:54;;;;;;;1.65;1.55;;;22.50;99.90;;;;;;4991225;28;20207;-69
2023/06/20 07:06:20;;;;;;;0.77;0.77;;;22.30;99.90;;;;;;4991910;28;20196;-70
2023/06/20 07:08:46;;;;;;;1.42;1.20;;;22.50;99.90;;;;;;4992027;28;20573;-69
2023/06/20 07:11:12;;;;;;;1.23;1.13;;;22.40;99.90;;;;;;4991984;28;20219;-68
2023/06/20 07:13:37;;;;;;;1.45;1.33;;;22.60;99.90;;;;;;4991528;28;20192;-69
2023/06/20 07:16:04;;;;;;;2.15;1.83;;;22.20;99.90;;;;;;4996190;28;20213;-69
2023/06/20 07:18:29;;;;;;;1.60;1.30;;;22.00;99.90;;;;;;5011420;28;20301;-69
2023/06/20 07:20:57;;;;;;;1.70;1.25;;;22.00;99.90;;;;;;5011402;28;20713;-69
2023/06/20 07:23:23;;;;;;;2.80;1.70;;;22.10;99.90;;;;;;5011319;28;20218;-68
2023/06/20 07:25:49;;;;;;;2.85;1.52;;;22.20;99.90;;;;;;5011296;28;20250;-69
2023/06/20 07:28:15;;;;;;;1.20;1.10;;;22.40;99.90;;;;;;4999941;28;20191;-69
2023/06/20 07:30:40;;;;;;;1.73;1.58;;;22.40;99.90;;;;;;4991345;28;20203;-69
2023/06/20 07:33:06;;;;;;;1.13;1.02;;;22.40;99.90;;;;;;4991856;28;20659;-69
2023/06/20 07:35:32;;;;;;;2.70;2.03;;;22.50;99.90;;;;;;4991338;28;20199;-69
2023/06/20 07:37:58;;;;;;;2.10;1.40;;;22.60;99.90;;;;;;4973906;28;20204;-69
2023/06/20 07:40:24;;;;;;;1.10;1.00;;;22.60;99.90;;;;;;4989962;28;20311;-69
2023/06/20 07:42:50;;;;;;;1.65;1.52;;;22.60;99.90;;;;;;4987234;28;20214;-69
2023/06/20 07:45:15;;;;;;;1.30;1.20;;;22.80;99.90;;;;;;4991366;28;20270;-68
2023/06/20 07:47:41;;;;;;;1.75;1.00;;;22.70;99.90;;;;;;4991572;28;20203;-68
2023/06/20 07:50:07;;;;;;;1.23;1.13;;;22.50;99.90;;;;;;4991513;28;20238;-68
2023/06/20 07:52:33;;;;;;;4.30;1.85;;;22.60;99.90;;;;;;4973321;28;20202;-68
2023/06/20 07:55:01;;;;;;;1.48;1.17;;;22.50;99.90;;;;;;4991332;28;20196;-68
2023/06/20 07:57:27;;;;;;;1.83;1.15;;;22.40;99.90;;;;;;4973815;28;20210;-69
2023/06/20 07:59:53;;;;;;;1.35;1.25;;;22.50;99.90;;;;;;4990929;28;20221;-69
2023/06/20 08:02:18;;;;;;;1.35;1.25;;;22.50;99.90;;;;;;4991237;28;20192;-70
2023/06/20 08:04:44;;;;;;;1.17;1.05;;;22.60;99.90;;;;;;4991112;28;20195;-69
2023/06/20 08:07:10;;;;;;;1.92;1.52;;;22.70;99.90;;;;;;4973503;28;20282;-69
2023/06/20 08:09:35;;;;;;;1.20;1.10;;;22.70;99.90;;;;;;4990969;28;20195;-69
2023/06/20 08:12:01;;;;;;;1.25;1.13;;;22.90;99.90;;;;;;4995234;28;20229;-69
2023/06/20 08:14:27;;;;;;;1.85;1.27;;;23.00;99.90;;;;;;5010527;28;20198;-69
2023/06/20 08:16:52;;;;;;;2.13;1.50;;;22.90;99.90;;;;;;5012594;28;20265;-68
2023/06/20 08:19:18;;;;;;;3.92;1.83;;;23.00;99.90;;;;;;5014526;28;20281;-69
2023/06/20 08:21:44;;;;;;;0.82;0.77;;;23.00;99.90;;;;;;5014581;28;20214;-69
2023/06/20 08:24:09;;;;;;;1.42;1.17;;;23.10;99.90;;;;;;5014752;28;20204;-68
2023/06/20 08:26:35;;;;;;;2.25;1.38;;;23.10;99.90;;;;;;5007672;28;20808;-68
2023/06/20 08:29:02;;;;;;;1.45;1.23;;;22.80;99.90;;;;;;4994896;28;20200;-69
2023/06/20 08:31:36;;;;;;;1.20;1.10;;;22.70;99.90;;;;;;4994545;28;20649;-68
2023/06/20 08:34:05;;;;;;;1.75;1.10;;;22.70;99.90;;;;;;4995190;28;20280;-70
2023/06/20 08:36:32;;;;;;;1.27;0.90;;;22.40;99.90;;;;;;4994637;28;20745;-69
2023/06/20 08:38:59;;;;;;;2.75;1.58;;;22.40;99.90;;;;;;4992745;28;20217;-69
2023/06/20 08:41:25;;;;;;;1.10;0.90;;;22.30;99.90;;;;;;4977036;28;20616;-69
2023/06/20 08:43:51;;;;;;;1.55;1.27;;;22.20;99.90;;;;;;4994465;28;20196;-69
2023/06/20 08:46:17;;;;;;;1.10;1.00;;;22.00;99.90;;;;;;4976933;28;20709;-69
2023/06/20 08:48:43;;;;;;;0.88;0.88;;;21.80;99.90;;;;;;4974993;28;20251;-69
2023/06/20 08:51:14;;;;;;;1.30;1.13;;;21.70;99.90;;;;;;4977052;28;20196;-68
2023/06/20 08:53:42;;;;;;;1.42;1.00;;;21.40;99.90;;;;;;4994155;28;20285;-68
2023/06/20 08:56:08;;;;;;;0.75;0.75;;;21.50;99.90;;;;;;4994259;28;20195;-69
2023/06/20 08:58:33;;;;;;;1.13;0.98;;;21.50;99.90;;;;;;4994075;28;20210;-68
2023/06/20 09:01:00;;;;;;;0.73;0.73;;;21.70;99.90;;;;;;4994389;28;20200;-69
2023/06/20 09:03:25;;;;;;;3.83;1.98;;;21.80;99.90;;;;;;4993940;28;20196;-68
2023/06/20 09:05:51;;;;;;;5.13;1.65;;;21.80;99.90;;;;;;4994223;28;20194;-68
2023/06/20 09:08:17;;;;;;;0.80;0.80;;;21.90;99.90;;;;;;4994306;28;20230;-68
2023/06/20 09:10:44;;;;;;;1.10;1.00;;;21.80;99.90;;;;;;4994019;28;20196;-69
2023/06/20 09:13:12;;;;;;;0.93;0.93;;;21.80;99.90;;;;;;4994172;28;20716;-68
2023/06/20 09:15:38;;;;;;;1.10;0.90;;;21.80;99.90;;;;;;4993943;28;20612;-68
2023/06/20 09:18:06;;;;;;;1.10;1.00;;;21.70;99.90;;;;;;4994107;28;20196;-68
2023/06/20 09:20:32;;;;;;;2.38;1.00;;;21.60;99.90;;;;;;5008807;28;20265;-68
2023/06/20 09:22:59;;;;;;;1.35;0.90;;;21.60;99.90;;;;;;4993612;28;20674;-68
2023/06/20 09:25:27;;;;;;;1.55;0.90;;;21.60;99.90;;;;;;4993964;28;20742;-68
2023/06/20 09:27:54;;;;;;;1.17;1.08;;;21.80;99.90;;;;;;4992475;28;20207;-69
2023/06/20 09:30:20;;;;;;;1.13;0.90;;;21.90;99.90;;;;;;4994317;28;20223;-69
2023/06/20 09:32:46;;;;;;;4.82;1.77;;;21.90;99.90;;;;;;4995269;28;20227;-68
2023/06/20 09:35:14;;;;;;;0.73;0.70;;;21.60;99.90;;;;;;4976106;28;20195;-68
2023/06/20 09:37:47;;;;;;;3.70;1.80;;;21.60;99.90;;;;;;4993441;28;20199;-68
2023/06/20 09:40:15;;;;;;;1.33;1.23;;;21.60;99.90;;;;;;4975511;28;20223;-69
2023/06/20 09:42:43;;;;;;;1.25;1.10;;;21.50;99.90;;;;;;5004771;28;20202;-68
2023/06/20 09:45:11;;;;;;;7.68;1.85;;;21.30;99.90;;;;;;4995184;28;20201;-68
2023/06/20 09:47:38;;;;;;;2.15;1.55;;;21.30;99.90;;;;;;4994985;28;20230;-69
2023/06/20 09:50:08;;;;;;;1.55;1.02;;;21.20;99.90;;;;;;5012599;28;20697;-68
2023/06/20 09:52:39;;;;;;;1.65;1.55;;;21.30;99.90;;;;;;5007146;28;20655;-68
2023/06/20 09:55:10;;;;;;;1.50;1.40;;;21.40;99.90;;;;;;4976367;28;20204;-68
2023/06/20 09:57:40;;;;;;;1.10;1.00;;;21.50;99.90;;;;;;4992831;28;20241;-67
2023/06/20 10:00:12;;;;;;;1.48;1.38;;;21.50;99.90;;;;;;4993110;28;20207;-68
2023/06/20 10:02:40;;;;;;;1.05;0.95;;;21.40;99.90;;;;;;4993136;28;20191;-68
2023/06/20 10:05:08;;;;;;;1.77;1.35;;;21.50;99.90;;;;;;4993041;28;20679;-69
2023/06/20 10:07:36;;;;;;;1.23;1.00;;;21.40;99.90;;;;;;4993008;28;20192;-69
2023/06/20 10:10:03;;;;;;;1.40;1.30;;;21.20;99.90;;;;;;4992894;28;20254;-68
2023/06/20 10:12:29;;;;;;;1.33;1.23;;;21.40;99.90;;;;;;4992870;28;20201;-68
2023/06/20 10:14:56;;;;;;;1.33;1.15;;;21.60;99.90;;;;;;4993044;28;20689;-69
2023/06/20 10:17:34;;;;;;;1.02;1.02;;;21.80;99.90;;;;;;4992701;28;20199;-70
2023/06/20 10:20:00;;;;;;;1.60;1.48;;;22.00;99.90;;;;;;4993032;28;20683;-69
2023/06/20 10:22:42;;;;;;;2.05;1.75;;;22.20;99.90;;;;;;4992699;28;20191;-69
2023/06/20 10:25:15;;;;;;;1.40;0.93;;;22.40;99.90;;;;;;4992724;28;20194;-69
2023/06/20 10:27:53;;;;;;;0.82;0.82;;;22.60;99.90;;;;;;4992687;28;20200;-69
2023/06/20 10:30:53;;;;;;;2.03;1.70;;;22.60;99.90;;;;;;4992373;28;20286;-69
2023/06/20 10:33:32;;;;;;;2.65;1.25;;;22.80;99.90;;;;;;4974544;28;20231;-70
2023/06/20 10:36:11;;;;;;;1.52;0.85;;;23.20;99.90;;;;;;4992533;28;20411;-69
2023/06/20 10:39:07;;;;;;;1.67;1.50;;;23.30;99.90;;;;;;4990943;28;20262;-69
2023/06/20 10:41:33;;;;;;;1.70;1.10;;;23.80;99.90;;;;;;4985701;28;20704;-70
2023/06/20 10:43:59;;;;;;;35.88;1.63;;;24.10;99.90;;;;;;4992211;28;20191;-69
2023/06/20 10:46:37;;;;;;;1.38;1.27;;;24.50;99.90;;;;;;4992325;28;20595;-67
2023/06/20 10:49:04;;;;;;;2.53;1.30;;;25.00;99.90;;;;;;4990597;28;20322;-70
2023/06/20 10:51:30;;;;;;;2.28;1.45;;;25.30;99.90;;;;;;4992762;28;20192;-69
2023/06/20 10:54:12;;;;;;;1.48;1.08;;;25.40;99.90;;;;;;4991754;28;20199;-68
2023/06/20 10:56:38;;;;;;;0.93;0.90;;;25.90;99.90;;;;;;4992605;28;20192;-70
2023/06/20 10:59:11;;;;;;;1.45;1.25;;;25.80;99.90;;;;;;4974601;28;20670;-68
2023/06/20 11:01:37;;;;;;;1.70;1.60;;;26.20;99.90;;;;;;4991880;28;20619;-70
2023/06/20 11:04:11;;;;;;;3.35;1.60;;;25.90;99.90;;;;;;5007184;28;20551;-69
2023/06/20 11:06:37;;;;;;;1.83;1.10;;;26.00;99.90;;;;;;4991828;28;20192;-70
2023/06/20 11:09:03;;;;;;;1.55;1.45;;;26.40;99.90;;;;;;5006958;28;20211;-70
2023/06/20 11:11:38;;;;;;;2.42;1.38;;;26.40;99.90;;;;;;4991769;28;20207;-70
2023/06/20 11:14:18;;;;;;;1.45;1.33;;;26.40;99.90;;;;;;4991723;28;20199;-70
2023/06/20 11:16:45;;;;;;;2.03;1.20;;;26.20;99.90;;;;;;4990647;28;20207;-70
2023/06/20 11:19:11;;;;;;;1.80;1.38;;;26.20;99.90;;;;;;4990574;28;20247;-70
2023/06/20 11:21:37;;;;;;;2.08;1.52;;;26.10;99.90;;;;;;4991397;28;20219;-70
2023/06/20 11:24:04;;;;;;;2.05;1.48;;;26.20;99.90;;;;;;4990214;28;20291;-71
2023/06/20 11:26:33;;;;;;;1.02;1.00;;;26.30;99.90;;;;;;4991273;28;20225;-70
2023/06/20 11:29:04;;;;;;;1.42;1.33;;;26.20;99.90;;;;;;4991554;28;20192;-70
2023/06/20 11:31:30;;;;;;;0.82;0.82;;;25.90;99.90;;;;;;4991249;28;20258;-70
2023/06/20 11:34:05;;;;;;;1.67;0.80;;;25.90;99.90;;;;;;4991861;28;20671;-71
2023/06/20 11:36:36;;;;;;;2.40;1.70;;;25.50;99.90;;;;;;4991360;28;20194;-70
2023/06/20 11:39:07;;;;;;;1.02;0.93;;;25.30;99.90;;;;;;4991473;28;20210;-70
2023/06/20 11:41:34;;;;;;;2.35;1.67;;;25.50;99.90;;;;;;4991206;28;20685;-70
2023/06/20 11:44:01;;;;;;;0.80;0.80;;;25.60;99.90;;;;;;4991838;28;20587;-70
2023/06/20 11:46:27;;;;;;;1.50;1.33;;;25.80;99.90;;;;;;4973663;28;20195;-70
2023/06/20 11:48:57;;;;;;;1.77;1.20;;;25.90;99.90;;;;;;4991264;28;20400;-70
2023/06/20 11:51:25;;;;;;;1.42;1.20;;;25.80;99.90;;;;;;4990875;28;20662;-69
2023/06/20 11:54:02;;;;;;;2.40;1.42;;;25.60;99.90;;;;;;4991384;28;20269;-70
2023/06/20 11:56:27;;;;;;;1.40;1.08;;;25.60;99.90;;;;;;4975639;28;20203;-70
2023/06/20 11:58:53;;;;;;;1.77;0.90;;;25.30;99.90;;;;;;5006098;28;20212;-70
2023/06/20 12:01:23;;;;;;;1.58;0.98;;;25.40;99.90;;;;;;4991034;28;20227;-70
2023/06/20 12:04:02;;;;;;;0.98;0.98;;;25.40;99.90;;;;;;4991020;28;20192;-70
2023/06/20 12:06:33;;;;;;;0.70;0.60;;;25.50;99.90;;;;;;4990920;28;20188;-70
2023/06/20 12:09:11;;;;;;;0.70;0.70;;;25.70;99.90;;;;;;5001339;28;20257;-70
2023/06/20 12:11:47;;;;;;;1.13;1.02;;;25.90;99.90;;;;;;4990590;28;20667;-70
2023/06/20 12:14:14;;;;;;;1.17;1.08;;;25.60;99.90;;;;;;4991385;28;20784;-70
2023/06/20 12:16:40;;;;;;;0.88;0.80;;;26.00;99.90;;;;;;4991074;28;20278;-70
2023/06/20 12:19:06;;;;;;;2.15;1.25;;;26.70;99.90;;;;;;4990872;28;20642;-69
2023/06/20 12:21:32;;;;;;;0.70;0.70;;;26.70;99.90;;;;;;4990730;28;20196;-71
2023/06/20 12:23:57;;;;;;;1.60;1.25;;;26.50;99.90;;;;;;4991032;28;20400;-70
2023/06/20 12:26:24;;;;;;;2.22;1.38;;;26.50;99.90;;;;;;4990596;28;20249;-71
2023/06/20 12:28:49;;;;;;;0.82;0.70;;;26.40;99.90;;;;;;4991057;28;20607;-70
2023/06/20 12:31:15;;;;;;;1.52;1.15;;;26.10;99.90;;;;;;4990742;28;20279;-70
2023/06/20 12:33:41;;;;;;;1.30;1.17;;;25.90;99.90;;;;;;4990790;28;20651;-69
2023/06/20 12:36:08;;;;;;;1.25;1.15;;;25.90;99.90;;;;;;4990982;28;20195;-68
2023/06/20 12:38:34;;;;;;;0.82;0.82;;;25.70;99.90;;;;;;4973218;28;20200;-69
2023/06/20 12:41:00;;;;;;;1.70;0.98;;;25.80;99.90;;;;;;4991339;28;20728;-69
2023/06/20 12:43:26;;;;;;;1.50;1.23;;;25.60;99.90;;;;;;4990556;28;20694;-69
2023/06/20 12:45:58;;;;;;;1.98;1.25;;;25.90;99.90;;;;;;4990307;28;20274;-69
2023/06/20 12:48:25;;;;;;;1.70;0.90;;;26.20;99.90;;;;;;4990419;28;20223;-69
2023/06/20 12:50:51;;;;;;;3.13;1.50;;;26.20;99.90;;;;;;4990848;28;20277;-69
2023/06/20 12:53:17;;;;;;;2.00;1.40;;;26.20;99.90;;;;;;4990547;28;20685;-69
2023/06/20 12:55:44;;;;;;;1.05;0.80;;;26.60;99.90;;;;;;4990946;28;20191;-69
2023/06/20 12:58:10;;;;;;;1.05;0.98;;;26.50;99.90;;;;;;4990829;28;20225;-69
2023/06/20 13:00:37;;;;;;;1.67;0.95;;;26.80;99.90;;;;;;4990459;28;20206;-69
2023/06/20 13:03:06;;;;;;;1.88;1.05;;;26.70;99.90;;;;;;4993372;28;20195;-69
2023/06/20 13:05:33;;;;;;;0.65;0.57;;;27.30;99.90;;;;;;4994291;28;20659;-70
2023/06/20 13:07:59;;;;;;;2.08;1.42;;;27.70;99.90;;;;;;5004805;28;20662;-69
2023/06/20 13:10:25;;;;;;;0.65;0.65;;;27.60;99.90;;;;;;4994512;28;20214;-70
2023/06/20 13:12:51;;;;;;;2.65;1.00;;;27.30;99.90;;;;;;4994039;28;20207;-69
2023/06/20 13:15:24;;;;;;;1.15;1.00;;;26.90;99.90;;;;;;4994057;28;20196;-69
2023/06/20 13:17:51;;;;;;;2.30;1.30;;;26.60;99.90;;;;;;4993927;28;20831;-69
2023/06/20 13:20:18;;;;;;;1.35;1.17;;;26.60;99.90;;;;;;4993929;28;20223;-70
2023/06/20 13:22:44;;;;;;;1.48;1.00;;;26.60;99.90;;;;;;4993887;28;20655;-69
2023/06/20 13:25:09;;;;;;;5.57;1.30;;;26.40;99.90;;;;;;4994032;28;20198;-69
2023/06/20 13:27:35;;;;;;;0.85;0.85;;;26.30;99.90;;;;;;4993635;28;20246;-70
2023/06/20 13:30:02;;;;;;;1.38;1.05;;;26.20;99.90;;;;;;4993599;28;20254;-70
2023/06/20 13:32:28;;;;;;;1.15;0.98;;;26.30;99.90;;;;;;4993563;28;20200;-70
2023/06/20 13:34:53;;;;;;;0.90;0.88;;;26.60;99.90;;;;;;4993853;28;20283;-69
2023/06/20 13:37:19;;;;;;;2.00;1.13;;;26.80;99.90;;;;;;4993391;28;20199;-70
2023/06/20 13:39:45;;;;;;;0.65;0.65;;;26.70;99.90;;;;;;4976451;28;20222;-70
2023/06/20 13:42:11;;;;;;;1.05;0.68;;;26.90;99.90;;;;;;4993356;28;20199;-69
2023/06/20 13:44:36;;;;;;;3.58;1.25;;;27.10;99.90;;;;;;4993583;28;20195;-70
2023/06/20 13:47:02;;;;;;;2.20;0.90;;;27.20;99.90;;;;;;4976488;28;20229;-70